createdAt,value
2019-05-18T00:00:08.926Z,1.00
2019-05-18T00:02:39.879Z,0.90
2019-05-18T00:05:09.609Z,1.35
2019-05-18T00:07:38.950Z,1.12
2019-05-18T00:10:09.208Z,1.25
2019-05-18T00:12:38.537Z,1.40
2019-05-18T00:15:08.794Z,1.10
2019-05-18T00:17:38.138Z,1.25
2019-05-18T00:20:08.997Z,1.07
2019-05-18T00:22:38.526Z,1.40
2019-05-18T00:25:08.482Z,3.20
2019-05-18T00:27:37.883Z,1.17
2019-05-18T00:30:11.550Z,1.47
2019-05-18T00:32:40.909Z,1.17
2019-05-18T00:35:10.423Z,1.05
2019-05-18T00:37:39.834Z,6.15
2019-05-18T00:40:09.610Z,1.30
2019-05-18T00:42:38.921Z,1.75
2019-05-18T00:45:09.404Z,3.33
2019-05-18T00:47:41.865Z,1.40
2019-05-18T00:50:09.996Z,1.40
2019-05-18T00:52:39.317Z,2.67
2019-05-18T00:55:09.288Z,1.40
2019-05-18T00:57:38.604Z,1.40
2019-05-18T01:00:09.979Z,1.10
2019-05-18T01:02:39.294Z,1.10
2019-05-18T01:05:09.164Z,1.00
2019-05-18T01:07:38.481Z,1.00
2019-05-18T01:10:08.455Z,1.22
2019-05-18T01:12:37.774Z,2.12
2019-05-18T01:15:08.047Z,1.32
2019-05-18T01:17:37.394Z,3.05
2019-05-18T01:20:07.415Z,2.75
2019-05-18T01:22:36.797Z,1.12
2019-05-18T01:25:06.465Z,1.15
2019-05-18T01:27:35.809Z,1.25
2019-05-18T01:30:07.354Z,1.30
2019-05-18T01:32:36.733Z,1.45
2019-05-18T01:35:07.777Z,2.95
2019-05-18T01:37:37.099Z,4.85
2019-05-18T01:40:07.066Z,2.55
2019-05-18T01:42:36.457Z,2.58
2019-05-18T01:45:16.799Z,2.15
2019-05-18T01:47:41.177Z,1.50
2019-05-18T01:50:10.654Z,2.00
2019-05-18T01:52:40.042Z,1.50
2019-05-18T01:55:09.615Z,1.47
2019-05-18T01:57:38.935Z,2.50
2019-05-18T02:00:09.407Z,1.60
2019-05-18T02:02:39.765Z,2.60
2019-05-18T02:05:09.453Z,2.37
2019-05-18T02:07:38.777Z,1.22
2019-05-18T02:10:08.446Z,1.92
2019-05-18T02:12:37.761Z,1.12
2019-05-18T02:15:07.668Z,1.55
2019-05-18T02:17:37.033Z,1.70
2019-05-18T02:20:07.113Z,1.40
2019-05-18T02:22:36.589Z,1.42
2019-05-18T02:25:08.994Z,1.70
2019-05-18T02:27:38.642Z,1.45
2019-05-18T02:30:09.690Z,1.77
2019-05-18T02:32:39.228Z,1.80
2019-05-18T02:35:09.778Z,1.20
2019-05-18T02:37:39.095Z,2.22
2019-05-18T02:40:08.862Z,1.30
2019-05-18T02:42:38.192Z,1.42
2019-05-18T02:45:09.472Z,1.45
2019-05-18T02:47:38.865Z,1.30
2019-05-18T02:50:09.207Z,2.60
2019-05-18T02:52:38.584Z,2.70
2019-05-18T02:55:08.367Z,4.17
2019-05-18T02:57:37.688Z,4.50
2019-05-18T03:00:08.829Z,2.08
2019-05-18T03:02:38.134Z,1.42
2019-05-18T03:05:08.420Z,1.60
2019-05-18T03:07:37.865Z,1.40
2019-05-18T03:10:07.574Z,1.62
2019-05-18T03:12:37.114Z,3.50
2019-05-18T03:15:07.391Z,2.20
2019-05-18T03:17:36.909Z,2.45
2019-05-18T03:20:07.830Z,3.70
2019-05-18T03:22:37.238Z,1.72
2019-05-18T03:25:07.195Z,1.85
2019-05-18T03:27:36.533Z,1.40
2019-05-18T03:30:08.065Z,1.87
2019-05-18T03:32:37.419Z,1.70
2019-05-18T03:35:07.508Z,1.70
2019-05-18T03:37:37.000Z,1.42
2019-05-18T03:40:07.127Z,1.45
2019-05-18T03:42:36.528Z,1.80
2019-05-18T03:45:06.285Z,1.75
2019-05-18T03:47:35.625Z,1.85
2019-05-18T03:50:09.422Z,1.90
2019-05-18T03:52:38.829Z,1.70
2019-05-18T03:55:08.312Z,2.95
2019-05-18T03:57:38.711Z,1.45
2019-05-18T04:00:09.068Z,1.80
2019-05-18T04:02:38.415Z,1.60
2019-05-18T04:05:08.065Z,1.92
2019-05-18T04:07:37.401Z,1.70
2019-05-18T04:10:07.264Z,2.55
2019-05-18T04:12:36.588Z,3.30
2019-05-18T04:15:07.444Z,2.15
2019-05-18T04:17:36.782Z,2.70
2019-05-18T04:20:06.834Z,2.42
2019-05-18T04:22:36.167Z,1.95
2019-05-18T04:25:06.638Z,1.82
2019-05-18T04:27:36.044Z,2.10
2019-05-18T04:30:07.572Z,2.00
2019-05-18T04:32:36.903Z,3.17
2019-05-18T04:35:07.158Z,2.37
2019-05-18T04:37:37.558Z,1.80
2019-05-18T04:40:08.587Z,3.55
2019-05-18T04:42:37.938Z,2.65
2019-05-18T04:45:08.918Z,2.05
2019-05-18T04:47:38.249Z,2.42
2019-05-18T04:50:09.112Z,2.17
2019-05-18T04:52:38.536Z,2.33
2019-05-18T04:55:08.050Z,2.42
2019-05-18T04:57:37.390Z,2.20
2019-05-18T05:00:08.554Z,1.92
2019-05-18T05:02:38.979Z,2.08
2019-05-18T05:05:08.692Z,1.82
2019-05-18T05:07:39.031Z,3.90
2019-05-18T05:10:08.514Z,2.47
2019-05-18T05:12:37.850Z,1.92
2019-05-18T05:15:07.602Z,2.17
2019-05-18T05:17:37.910Z,2.33
2019-05-18T05:20:19.416Z,2.92
2019-05-18T05:22:39.060Z,3.98
2019-05-18T05:25:09.070Z,3.30
2019-05-18T05:27:38.397Z,3.83
2019-05-18T05:30:08.153Z,3.50
2019-05-18T05:32:38.458Z,4.75
2019-05-18T05:35:08.352Z,4.37
2019-05-18T05:37:37.682Z,5.00
2019-05-18T05:40:07.645Z,6.37
2019-05-18T05:42:37.145Z,9.98
2019-05-18T05:45:06.910Z,5.05
2019-05-18T05:47:37.218Z,4.60
2019-05-18T05:50:08.172Z,4.67
2019-05-18T05:52:37.649Z,4.65
2019-05-18T05:55:08.313Z,4.40
2019-05-18T05:57:37.649Z,4.87
2019-05-18T06:00:08.611Z,4.78
2019-05-18T06:02:38.020Z,5.92
2019-05-18T06:05:07.878Z,4.97
2019-05-18T06:07:37.217Z,3.92
2019-05-18T06:10:07.074Z,4.35
2019-05-18T06:12:36.402Z,4.75
2019-05-18T06:15:07.081Z,4.40
2019-05-18T06:17:36.401Z,4.15
2019-05-18T06:20:09.160Z,3.92
2019-05-18T06:22:38.481Z,5.50
2019-05-18T06:25:08.797Z,6.03
2019-05-18T06:27:38.250Z,4.08
2019-05-18T06:30:08.336Z,4.42
2019-05-18T06:32:37.822Z,3.83
2019-05-18T06:35:07.726Z,4.65
2019-05-18T06:37:37.037Z,4.45
2019-05-18T06:40:09.352Z,4.47
2019-05-18T06:42:38.686Z,4.45
2019-05-18T06:45:08.662Z,4.47
2019-05-18T06:47:38.950Z,5.17
2019-05-18T06:50:12.585Z,4.22
2019-05-18T06:52:40.908Z,5.37
2019-05-18T06:55:10.413Z,4.55
2019-05-18T06:57:40.175Z,5.55
2019-05-18T07:00:12.615Z,4.47
2019-05-18T07:02:41.930Z,4.72
2019-05-18T07:05:11.498Z,4.97
2019-05-18T07:07:42.174Z,5.40
2019-05-18T07:10:11.750Z,6.35
2019-05-18T07:12:41.073Z,4.62
2019-05-18T07:15:12.342Z,5.15
2019-05-18T07:17:41.662Z,4.42
2019-05-18T07:20:11.670Z,5.25
2019-05-18T07:22:41.506Z,4.35
2019-05-18T07:25:11.679Z,5.50
2019-05-18T07:27:41.004Z,3.83
2019-05-18T07:30:10.773Z,4.20
2019-05-18T07:32:41.257Z,5.00
2019-05-18T07:35:11.334Z,3.42
2019-05-18T07:37:40.653Z,3.65
2019-05-18T07:40:10.411Z,3.00
2019-05-18T07:42:39.866Z,5.83
2019-05-18T07:45:09.654Z,3.05
2019-05-18T07:47:39.052Z,5.78
2019-05-18T07:50:09.062Z,2.92
2019-05-18T07:52:38.377Z,3.15
2019-05-18T07:55:08.455Z,4.28
2019-05-18T07:57:37.766Z,5.40
2019-05-18T08:00:07.446Z,4.78
2019-05-18T08:02:37.834Z,3.67
2019-05-18T08:05:08.106Z,7.25
2019-05-18T08:07:37.502Z,3.20
2019-05-18T08:10:07.573Z,2.98
2019-05-18T08:12:36.889Z,2.80
2019-05-18T08:15:09.034Z,3.27
2019-05-18T08:17:38.360Z,3.90
2019-05-18T08:20:08.734Z,3.20
2019-05-18T08:22:38.126Z,3.35
2019-05-18T08:25:08.099Z,3.12
2019-05-18T08:27:37.426Z,3.87
2019-05-18T08:30:07.193Z,6.90
2019-05-18T08:32:36.532Z,3.17
2019-05-18T08:35:07.101Z,3.20
2019-05-18T08:37:36.409Z,3.50
2019-05-18T08:40:09.813Z,3.12
2019-05-18T08:42:39.215Z,3.15
2019-05-18T08:45:09.582Z,3.10
2019-05-18T08:47:38.901Z,3.75
2019-05-18T08:50:09.850Z,3.58
2019-05-18T08:52:39.165Z,8.20
2019-05-18T08:55:08.844Z,3.12
2019-05-18T08:57:38.231Z,3.10
2019-05-18T09:00:08.004Z,4.53
2019-05-18T09:02:37.459Z,3.52
2019-05-18T09:05:07.429Z,4.28
2019-05-18T09:07:36.746Z,3.83
2019-05-18T09:10:07.813Z,3.22
2019-05-18T09:12:37.142Z,5.22
2019-05-18T09:15:07.322Z,6.12
2019-05-18T09:17:36.637Z,3.77
2019-05-18T09:20:08.027Z,3.72
2019-05-18T09:22:37.520Z,7.03
2019-05-18T09:25:07.774Z,4.17
2019-05-18T09:27:38.182Z,5.22
2019-05-18T09:30:09.260Z,3.75
2019-05-18T09:32:38.806Z,4.10
2019-05-18T09:35:09.171Z,3.98
2019-05-18T09:37:38.576Z,6.53
2019-05-18T09:40:08.643Z,4.08
2019-05-18T09:42:38.108Z,4.40
2019-05-18T09:45:08.166Z,3.75
2019-05-18T09:47:37.568Z,4.72
2019-05-18T09:50:08.427Z,4.00
2019-05-18T09:52:46.090Z,3.42
2019-05-18T09:55:09.202Z,3.22
2019-05-18T09:57:38.540Z,2.77
2019-05-18T10:00:10.523Z,3.65
2019-05-18T10:02:40.086Z,3.27
2019-05-18T10:05:10.351Z,4.35
2019-05-18T10:07:39.818Z,4.83
2019-05-18T10:10:09.405Z,1.82
2019-05-18T10:12:38.973Z,1.87
2019-05-18T10:15:09.229Z,2.08
2019-05-18T10:17:38.565Z,2.15
2019-05-18T10:20:08.643Z,2.60
2019-05-18T10:22:51.208Z,2.05
2019-05-18T10:25:10.878Z,1.67
2019-05-18T10:27:40.272Z,1.98
2019-05-18T10:30:10.039Z,3.75
2019-05-18T10:32:40.346Z,2.17
2019-05-18T10:35:10.108Z,3.25
2019-05-18T10:37:39.439Z,3.15
2019-05-18T10:40:09.802Z,2.02
2019-05-18T10:42:39.134Z,1.70
2019-05-18T10:45:09.290Z,2.05
2019-05-18T10:47:38.701Z,2.37
2019-05-18T10:50:08.563Z,2.35
2019-05-18T10:52:37.885Z,1.95
2019-05-18T10:55:08.659Z,2.17
2019-05-18T10:57:37.991Z,1.72
2019-05-18T11:00:09.964Z,1.30
2019-05-18T11:02:39.485Z,2.50
2019-05-18T11:05:09.038Z,1.67
2019-05-18T11:07:38.456Z,1.40
2019-05-18T11:10:09.024Z,1.27
2019-05-18T11:12:39.498Z,1.30
2019-05-18T11:15:09.952Z,2.10
2019-05-18T11:17:39.418Z,2.70
2019-05-18T11:20:09.469Z,1.37
2019-05-18T11:22:38.818Z,1.40
2019-05-18T11:25:09.176Z,1.37
2019-05-18T11:27:38.651Z,1.57
2019-05-18T11:30:10.364Z,1.35
2019-05-18T11:32:39.852Z,1.70
2019-05-18T11:35:09.997Z,1.22
2019-05-18T11:37:39.549Z,1.90
2019-05-18T11:40:09.686Z,1.42
2019-05-18T11:42:39.122Z,1.40
2019-05-18T11:45:10.894Z,1.70
2019-05-18T11:47:40.205Z,2.47
2019-05-18T11:50:10.670Z,1.80
2019-05-18T11:52:40.083Z,1.80
2019-05-18T11:55:09.837Z,1.80
2019-05-18T11:57:39.405Z,1.52
2019-05-18T12:00:11.630Z,1.65
2019-05-18T12:02:40.968Z,1.47
2019-05-18T12:05:11.788Z,2.17
2019-05-18T12:07:41.113Z,1.60
2019-05-18T12:10:11.078Z,2.10
2019-05-18T12:12:40.418Z,1.22
2019-05-18T12:15:10.882Z,1.72
2019-05-18T12:17:40.214Z,1.70
2019-05-18T12:20:10.469Z,1.52
2019-05-18T12:22:39.799Z,1.70
2019-05-18T12:25:09.658Z,1.60
2019-05-18T12:27:39.065Z,1.60
2019-05-18T12:30:09.586Z,1.72
2019-05-18T12:32:39.066Z,1.62
2019-05-18T12:35:12.110Z,2.85
2019-05-18T12:37:41.522Z,1.50
2019-05-18T12:40:12.725Z,1.30
2019-05-18T12:42:42.274Z,1.62
2019-05-18T12:45:12.325Z,1.55
2019-05-18T12:47:41.686Z,1.70
2019-05-18T12:50:11.797Z,1.40
2019-05-18T12:52:41.129Z,1.75
2019-05-18T12:55:10.893Z,1.42
2019-05-18T12:57:40.224Z,2.00
2019-05-18T13:00:12.341Z,1.32
2019-05-18T13:02:41.751Z,1.60
2019-05-18T13:05:11.514Z,1.42
2019-05-18T13:07:41.022Z,1.70
2019-05-18T13:10:12.853Z,1.70
2019-05-18T13:12:42.263Z,1.98
2019-05-18T13:15:12.922Z,2.20
2019-05-18T13:17:42.264Z,2.12
2019-05-18T13:20:13.098Z,2.05
2019-05-18T13:22:42.499Z,1.80
2019-05-18T13:25:12.550Z,2.87
2019-05-18T13:27:41.881Z,1.77
2019-05-18T13:30:13.314Z,1.70
2019-05-18T13:32:42.651Z,1.80
2019-05-18T13:35:12.614Z,1.60
2019-05-18T13:37:41.951Z,2.75
2019-05-18T13:40:11.811Z,2.60
2019-05-18T13:42:41.148Z,3.83
2019-05-18T13:45:11.303Z,3.62
2019-05-18T13:47:40.642Z,13.50
2019-05-18T13:50:11.496Z,2.95
2019-05-18T13:52:40.934Z,4.00
2019-05-18T13:55:10.814Z,2.17
2019-05-18T13:57:40.214Z,3.90
2019-05-18T14:00:10.254Z,3.00
2019-05-18T14:02:39.658Z,1.95
2019-05-18T14:05:09.714Z,2.67
2019-05-18T14:07:39.114Z,5.00
2019-05-18T14:10:12.613Z,2.35
2019-05-18T14:12:41.586Z,1.72
2019-05-18T14:15:12.341Z,3.15
2019-05-18T14:17:41.672Z,2.10
2019-05-18T14:20:11.425Z,4.15
2019-05-18T14:22:40.767Z,2.40
2019-05-18T14:25:19.505Z,4.20
2019-05-18T14:27:41.493Z,4.80
2019-05-18T14:30:12.450Z,2.10
2019-05-18T14:32:41.788Z,3.33
2019-05-18T14:35:11.546Z,1.72
2019-05-18T14:37:40.936Z,2.45
2019-05-18T14:40:10.786Z,2.20
2019-05-18T14:42:40.127Z,1.60
2019-05-18T14:45:09.986Z,2.37
2019-05-18T14:47:39.325Z,1.70
2019-05-18T14:50:09.277Z,2.00
2019-05-18T14:52:38.614Z,1.80
2019-05-18T14:55:08.270Z,1.95
2019-05-18T14:57:37.611Z,3.65
2019-05-18T15:00:09.539Z,4.95
2019-05-18T15:02:38.874Z,1.90
2019-05-18T15:05:08.932Z,1.92
2019-05-18T15:07:38.266Z,1.85
2019-05-18T15:10:09.435Z,1.80
2019-05-18T15:12:38.773Z,1.72
2019-05-18T15:15:09.494Z,1.80
2019-05-18T15:17:38.922Z,1.50
2019-05-18T15:20:09.079Z,1.55
2019-05-18T15:22:39.453Z,1.87
2019-05-18T15:25:09.212Z,1.60
2019-05-18T15:27:38.551Z,1.70
2019-05-18T15:30:09.358Z,1.75
2019-05-18T15:32:38.750Z,1.70
2019-05-18T15:35:08.409Z,2.67
2019-05-18T15:37:38.888Z,1.90
2019-05-18T15:40:08.510Z,1.70
2019-05-18T15:42:37.841Z,1.85
2019-05-18T15:45:07.641Z,1.77
2019-05-18T15:47:37.039Z,2.15
2019-05-18T15:50:07.994Z,3.05
2019-05-18T15:52:37.346Z,2.00
2019-05-18T15:55:08.105Z,2.00
2019-05-18T15:57:37.470Z,2.30
2019-05-18T16:00:09.593Z,2.00
2019-05-18T16:02:38.923Z,2.42
2019-05-18T16:05:09.191Z,2.22
2019-05-18T16:07:39.585Z,2.87
2019-05-18T16:10:09.550Z,3.27
2019-05-18T16:12:38.892Z,2.17
2019-05-18T16:15:09.405Z,1.98
2019-05-18T16:17:40.134Z,1.82
2019-05-18T16:20:12.460Z,2.87
2019-05-18T16:22:44.420Z,3.35
2019-05-18T16:25:14.157Z,3.80
2019-05-18T16:27:43.485Z,3.40
2019-05-18T16:30:13.437Z,2.72
2019-05-18T16:32:42.775Z,3.02
2019-05-18T16:35:12.330Z,2.75
2019-05-18T16:37:41.662Z,3.05
2019-05-18T16:40:11.718Z,4.47
2019-05-18T16:42:41.072Z,2.62
2019-05-18T16:45:10.845Z,3.17
2019-05-18T16:47:40.234Z,3.87
2019-05-18T16:50:10.220Z,7.40
2019-05-18T16:52:39.626Z,5.65
2019-05-18T16:55:09.996Z,9.30
2019-05-18T16:57:39.310Z,7.42
2019-05-18T17:00:11.277Z,8.88
2019-05-18T17:02:40.668Z,9.00
2019-05-18T17:05:10.302Z,7.08
2019-05-18T17:07:40.582Z,5.58
2019-05-18T17:10:12.455Z,8.88
2019-05-18T17:12:41.846Z,7.90
2019-05-18T17:15:11.424Z,3.20
2019-05-18T17:17:40.741Z,3.80
2019-05-18T17:20:11.821Z,4.62
2019-05-18T17:22:41.190Z,6.47
2019-05-18T17:25:10.858Z,4.10
2019-05-18T17:27:40.169Z,3.55
2019-05-18T17:30:10.840Z,4.62
2019-05-18T17:32:40.159Z,4.40
2019-05-18T17:35:09.832Z,4.33
2019-05-18T17:37:39.221Z,3.98
2019-05-18T17:40:09.194Z,6.85
2019-05-18T17:42:38.514Z,5.80
2019-05-18T17:45:09.254Z,4.50
2019-05-18T17:47:39.627Z,4.65
2019-05-18T17:50:09.870Z,4.20
2019-05-18T17:52:39.264Z,3.72
2019-05-18T17:55:09.040Z,3.42
2019-05-18T17:57:38.422Z,3.70
2019-05-18T18:00:09.383Z,3.45
2019-05-18T18:02:38.762Z,3.33
2019-05-18T18:05:09.142Z,4.45
2019-05-18T18:07:38.498Z,4.12
2019-05-18T18:10:08.505Z,2.87
2019-05-18T18:12:38.589Z,2.50
2019-05-18T18:15:09.673Z,2.50
2019-05-18T18:17:39.066Z,2.75
2019-05-18T18:20:09.119Z,3.25
2019-05-18T18:22:38.436Z,2.10
2019-05-18T18:25:08.486Z,2.67
2019-05-18T18:27:37.806Z,1.45
2019-05-18T18:30:08.185Z,1.50
2019-05-18T18:32:37.503Z,1.20
2019-05-18T18:35:07.473Z,1.00
2019-05-18T18:37:36.793Z,0.93
2019-05-18T18:40:06.832Z,0.80
2019-05-18T18:42:36.289Z,1.87
2019-05-18T18:45:07.443Z,4.17
2019-05-18T18:47:37.123Z,2.65
2019-05-18T18:50:06.689Z,1.45
2019-05-18T18:52:36.015Z,1.30
2019-05-18T18:55:07.087Z,0.80
2019-05-18T18:57:41.131Z,1.25
2019-05-18T19:00:07.986Z,1.22
2019-05-18T19:02:37.387Z,0.90
2019-05-18T19:05:07.218Z,0.80
2019-05-18T19:07:36.533Z,0.82
2019-05-18T19:10:06.615Z,0.68
2019-05-18T19:12:36.107Z,2.15
2019-05-18T19:15:06.873Z,0.70
2019-05-18T19:17:36.185Z,0.70
2019-05-18T19:20:06.366Z,0.85
2019-05-18T19:22:35.683Z,1.30
2019-05-18T19:25:06.153Z,0.90
2019-05-18T19:27:35.478Z,0.98
2019-05-18T19:30:10.047Z,0.80
2019-05-18T19:32:39.422Z,1.10
2019-05-18T19:35:09.387Z,3.90
2019-05-18T19:37:38.877Z,1.40
2019-05-18T19:40:08.933Z,1.20
2019-05-18T19:42:38.253Z,1.25
2019-05-18T19:45:09.044Z,4.37
2019-05-18T19:47:38.433Z,1.10
2019-05-18T19:50:08.838Z,1.07
2019-05-18T19:52:39.246Z,2.27
2019-05-18T19:55:09.018Z,1.20
2019-05-18T19:57:38.355Z,2.05
2019-05-18T20:00:09.461Z,3.92
2019-05-18T20:02:39.312Z,1.07
2019-05-18T20:05:09.653Z,1.15
2019-05-18T20:07:39.259Z,1.37
2019-05-18T20:10:10.371Z,1.60
2019-05-18T20:12:39.714Z,2.72
2019-05-18T20:15:10.026Z,1.32
2019-05-18T20:17:40.566Z,1.40
2019-05-18T20:20:11.590Z,3.25
2019-05-18T20:22:41.026Z,3.42
2019-05-18T20:25:10.659Z,3.00
2019-05-18T20:27:40.077Z,2.58
2019-05-18T20:30:10.006Z,4.87
2019-05-18T20:32:39.445Z,2.60
2019-05-18T20:35:10.078Z,1.85
2019-05-18T20:37:39.412Z,4.97
2019-05-18T20:40:10.119Z,1.30
2019-05-18T20:42:39.462Z,1.57
2019-05-18T20:45:09.629Z,1.25
2019-05-18T20:47:38.959Z,3.85
2019-05-18T20:50:08.725Z,1.50
2019-05-18T20:52:38.138Z,1.35
2019-05-18T20:55:07.661Z,1.50
2019-05-18T20:57:37.065Z,1.20
2019-05-18T21:00:08.196Z,2.90
2019-05-18T21:02:38.866Z,1.40
2019-05-18T21:05:10.174Z,1.47
2019-05-18T21:07:39.511Z,1.87
2019-05-18T21:10:09.179Z,1.50
2019-05-18T21:12:38.628Z,1.98
2019-05-18T21:15:09.858Z,1.50
2019-05-18T21:17:40.335Z,2.70
2019-05-18T21:20:10.166Z,1.40
2019-05-18T21:22:39.497Z,2.05
2019-05-18T21:25:09.057Z,1.50
2019-05-18T21:27:38.406Z,1.72
2019-05-18T21:30:07.887Z,1.55
2019-05-18T21:32:37.221Z,1.60
2019-05-18T21:35:07.513Z,1.57
2019-05-18T21:37:36.841Z,1.35
2019-05-18T21:40:06.606Z,1.65
2019-05-18T21:42:36.013Z,1.70
2019-05-18T21:45:07.042Z,2.40
2019-05-18T21:47:36.373Z,1.57
2019-05-18T21:50:06.951Z,1.60
2019-05-18T21:52:36.296Z,1.70
2019-05-18T21:55:08.749Z,5.12
2019-05-18T21:57:38.082Z,1.70
2019-05-18T22:00:08.749Z,1.57
2019-05-18T22:02:39.946Z,1.98
2019-05-18T22:05:09.506Z,1.90
2019-05-18T22:07:38.848Z,2.15
2019-05-18T22:10:08.798Z,1.90
2019-05-18T22:12:38.134Z,2.05
2019-05-18T22:15:08.095Z,1.60
2019-05-18T22:17:55.778Z,1.50
2019-05-18T22:20:25.113Z,1.82
2019-05-18T22:22:54.439Z,1.65
2019-05-18T22:25:23.759Z,1.80
2019-05-18T22:27:54.241Z,1.90
2019-05-18T22:30:23.558Z,1.87
2019-05-18T22:32:52.902Z,2.02
2019-05-18T22:35:22.226Z,2.00
2019-05-18T22:37:51.808Z,4.17
2019-05-18T22:40:21.193Z,1.80
2019-05-18T22:42:50.530Z,1.82
2019-05-18T22:45:19.925Z,2.37
2019-05-18T22:47:49.256Z,2.02
2019-05-18T22:50:18.594Z,1.80
2019-05-18T22:52:48.062Z,2.25
2019-05-18T22:55:17.554Z,3.05
2019-05-18T22:57:46.894Z,2.12
2019-05-18T23:00:17.118Z,1.75
2019-05-18T23:02:46.465Z,2.10
2019-05-18T23:05:15.785Z,1.87
2019-05-18T23:07:45.117Z,2.08
2019-05-18T23:10:14.674Z,1.92
2019-05-18T23:12:44.017Z,1.87
2019-05-18T23:15:13.770Z,1.90
2019-05-18T23:17:43.114Z,1.75
2019-05-18T23:20:12.778Z,1.90
2019-05-18T23:22:43.086Z,3.83
2019-05-18T23:25:12.539Z,2.05
2019-05-18T23:27:41.885Z,1.92
2019-05-18T23:30:11.554Z,2.17
2019-05-18T23:32:40.929Z,1.90
2019-05-18T23:35:10.336Z,2.12
2019-05-18T23:37:39.662Z,5.15
2019-05-18T23:40:09.349Z,2.45
2019-05-18T23:42:38.661Z,2.37
2019-05-18T23:45:08.944Z,2.05
2019-05-18T23:47:38.257Z,4.50
2019-05-18T23:50:07.734Z,2.25
2019-05-18T23:52:37.050Z,2.58
2019-05-18T23:55:06.825Z,1.72
2019-05-18T23:57:36.233Z,2.20
